5MA7 weather

Cochituate Heliport
Natick, Massachusetts, United States

Public forecast

Using degrees Fahrenheit for public forecast. Weather courtesy of forecast.io.

METAR (pilot weather report)

Closest report is Laurence G Hanscom Field, 10.5 nm (19.5 km) NNE. Retrieved 2019/09/16 14:51 UTC (16 minutes ago):

KBED 161451Z 31013G18KT 10SM CLR 20/07 A3006 RMK AO2 SLP189 T02000072 58004

TAF (pilot weather forecast)

Closest forecast is Laurence G Hanscom Field, 10.5 nm (19.5 km) NNE. Retrieved 2019/09/16 12:51 UTC (2 hours ago):

TAF KBED 161147Z 1612/1712 31005KT P6SM SCT250 FM162300 33005KT P6SM FEW250